sensor_id;sensor_type;location;lat;lon;timestamp;temperature;humidity
2022;DHT22;1015;49.756;6.994;2022-12-13T00:01:41;-5.10;99.90
2022;DHT22;1015;49.756;6.994;2022-12-13T00:04:11;-5.00;99.90
2022;DHT22;1015;49.756;6.994;2022-12-13T00:06:38;-5.30;99.90
2022;DHT22;1015;49.756;6.994;2022-12-13T00:09:06;-5.40;99.90
2022;DHT22;1015;49.756;6.994;2022-12-13T00:11:33;-5.50;99.90
2022;DHT22;1015;49.756;6.994;2022-12-13T00:14:00;-5.30;99.90
2022;DHT22;1015;49.756;6.994;2022-12-13T00:16:27;-5.20;99.90
2022;DHT22;1015;49.756;6.994;2022-12-13T00:18:56;-5.00;99.90
2022;DHT22;1015;49.756;6.994;2022-12-13T00:21:28;-5.00;99.90
2022;DHT22;1015;49.756;6.994;2022-12-13T00:23:55;-5.10;99.90
2022;DHT22;1015;49.756;6.994;2022-12-13T00:26:24;-5.00;99.90
2022;DHT22;1015;49.756;6.994;2022-12-13T00:28:52;-5.00;99.90
2022;DHT22;1015;49.756;6.994;2022-12-13T00:31:20;-4.90;99.90
2022;DHT22;1015;49.756;6.994;2022-12-13T00:33:48;-4.90;99.90
2022;DHT22;1015;49.756;6.994;2022-12-13T00:36:15;-5.00;99.90
2022;DHT22;1015;49.756;6.994;2022-12-13T00:38:44;-5.00;99.90
2022;DHT22;1015;49.756;6.994;2022-12-13T00:41:25;-5.10;99.90
2022;DHT22;1015;49.756;6.994;2022-12-13T00:43:53;-5.10;99.90
2022;DHT22;1015;49.756;6.994;2022-12-13T00:46:20;-4.90;99.90
2022;DHT22;1015;49.756;6.994;2022-12-13T00:48:48;-5.00;99.90
2022;DHT22;1015;49.756;6.994;2022-12-13T00:51:16;-4.90;99.90
2022;DHT22;1015;49.756;6.994;2022-12-13T00:53:45;-4.90;99.90
2022;DHT22;1015;49.756;6.994;2022-12-13T00:56:13;-5.10;99.90
2022;DHT22;1015;49.756;6.994;2022-12-13T00:58:41;-5.10;99.90
2022;DHT22;1015;49.756;6.994;2022-12-13T01:01:10;-5.10;99.90
2022;DHT22;1015;49.756;6.994;2022-12-13T01:03:38;-5.00;99.90
2022;DHT22;1015;49.756;6.994;2022-12-13T01:06:09;-5.10;99.90
2022;DHT22;1015;49.756;6.994;2022-12-13T01:08:36;-5.10;99.90
2022;DHT22;1015;49.756;6.994;2022-12-13T01:11:05;-5.10;99.90
2022;DHT22;1015;49.756;6.994;2022-12-13T01:13:32;-5.20;99.90
2022;DHT22;1015;49.756;6.994;2022-12-13T01:16:01;-5.10;99.90
2022;DHT22;1015;49.756;6.994;2022-12-13T01:18:28;-5.00;99.90
2022;DHT22;1015;49.756;6.994;2022-12-13T01:20:57;-5.00;99.90
2022;DHT22;1015;49.756;6.994;2022-12-13T01:23:25;-5.00;99.90
2022;DHT22;1015;49.756;6.994;2022-12-13T01:25:52;-5.10;99.90
2022;DHT22;1015;49.756;6.994;2022-12-13T01:28:21;-5.10;99.90
2022;DHT22;1015;49.756;6.994;2022-12-13T01:30:55;-5.20;99.90
2022;DHT22;1015;49.756;6.994;2022-12-13T01:33:22;-5.20;99.90
2022;DHT22;1015;49.756;6.994;2022-12-13T01:35:49;-5.20;99.90
2022;DHT22;1015;49.756;6.994;2022-12-13T01:38:17;-5.20;99.90
2022;DHT22;1015;49.756;6.994;2022-12-13T01:40:45;-5.20;99.90
2022;DHT22;1015;49.756;6.994;2022-12-13T01:43:13;-5.20;99.90
2022;DHT22;1015;49.756;6.994;2022-12-13T01:45:42;-5.10;99.90
2022;DHT22;1015;49.756;6.994;2022-12-13T01:48:13;-5.00;99.90
2022;DHT22;1015;49.756;6.994;2022-12-13T01:50:43;-5.10;99.90
2022;DHT22;1015;49.756;6.994;2022-12-13T01:53:16;-5.10;99.90
2022;DHT22;1015;49.756;6.994;2022-12-13T01:55:46;-5.20;99.90
2022;DHT22;1015;49.756;6.994;2022-12-13T01:58:16;-5.20;99.90
2022;DHT22;1015;49.756;6.994;2022-12-13T02:00:44;-5.10;99.90
2022;DHT22;1015;49.756;6.994;2022-12-13T02:10:38;-5.00;99.90
2022;DHT22;1015;49.756;6.994;2022-12-13T02:13:05;-5.10;99.90
2022;DHT22;1015;49.756;6.994;2022-12-13T02:15:38;-5.00;99.90
2022;DHT22;1015;49.756;6.994;2022-12-13T02:18:25;-4.90;99.90
2022;DHT22;1015;49.756;6.994;2022-12-13T02:24:13;-4.70;99.90
2022;DHT22;1015;49.756;6.994;2022-12-13T02:26:49;-4.80;99.90
2022;DHT22;1015;49.756;6.994;2022-12-13T02:32:22;-4.90;99.90
2022;DHT22;1015;49.756;6.994;2022-12-13T02:34:57;-4.80;99.90
2022;DHT22;1015;49.756;6.994;2022-12-13T02:37:31;-4.90;99.90
2022;DHT22;1015;49.756;6.994;2022-12-13T02:40:06;-4.90;99.90
2022;DHT22;1015;49.756;6.994;2022-12-13T02:42:37;-5.00;99.90
2022;DHT22;1015;49.756;6.994;2022-12-13T02:45:08;-5.00;99.90
2022;DHT22;1015;49.756;6.994;2022-12-13T02:47:41;-5.00;99.90
2022;DHT22;1015;49.756;6.994;2022-12-13T02:50:10;-5.10;99.90
2022;DHT22;1015;49.756;6.994;2022-12-13T02:52:39;-5.10;99.90
2022;DHT22;1015;49.756;6.994;2022-12-13T02:55:11;-5.20;99.90
2022;DHT22;1015;49.756;6.994;2022-12-13T02:57:41;-5.20;99.90
2022;DHT22;1015;49.756;6.994;2022-12-13T03:00:12;-5.20;99.90
2022;DHT22;1015;49.756;6.994;2022-12-13T03:02:49;-5.20;99.90
2022;DHT22;1015;49.756;6.994;2022-12-13T03:05:27;-5.10;99.90
2022;DHT22;1015;49.756;6.994;2022-12-13T03:08:21;-5.20;99.90
2022;DHT22;1015;49.756;6.994;2022-12-13T03:10:58;-5.20;99.90
2022;DHT22;1015;49.756;6.994;2022-12-13T03:13:31;-5.30;99.90
2022;DHT22;1015;49.756;6.994;2022-12-13T03:16:07;-5.30;99.90
2022;DHT22;1015;49.756;6.994;2022-12-13T03:18:36;-5.30;99.90
2022;DHT22;1015;49.756;6.994;2022-12-13T03:21:06;-5.10;99.90
2022;DHT22;1015;49.756;6.994;2022-12-13T03:23:34;-5.20;99.90
2022;DHT22;1015;49.756;6.994;2022-12-13T03:26:06;-5.20;99.90
2022;DHT22;1015;49.756;6.994;2022-12-13T03:28:34;-5.20;99.90
2022;DHT22;1015;49.756;6.994;2022-12-13T03:31:02;-5.10;99.90
2022;DHT22;1015;49.756;6.994;2022-12-13T03:33:29;-5.10;99.90
2022;DHT22;1015;49.756;6.994;2022-12-13T03:35:57;-5.10;99.90
2022;DHT22;1015;49.756;6.994;2022-12-13T03:38:25;-5.10;99.90
2022;DHT22;1015;49.756;6.994;2022-12-13T03:40:54;-5.20;99.90
2022;DHT22;1015;49.756;6.994;2022-12-13T03:43:22;-5.20;99.90
2022;DHT22;1015;49.756;6.994;2022-12-13T03:45:50;-5.20;99.90
2022;DHT22;1015;49.756;6.994;2022-12-13T03:48:17;-5.30;99.90
2022;DHT22;1015;49.756;6.994;2022-12-13T03:50:44;-5.40;99.90
2022;DHT22;1015;49.756;6.994;2022-12-13T03:53:12;-5.40;99.90
2022;DHT22;1015;49.756;6.994;2022-12-13T03:55:39;-5.50;99.90
2022;DHT22;1015;49.756;6.994;2022-12-13T03:58:06;-5.40;99.90
2022;DHT22;1015;49.756;6.994;2022-12-13T04:00:33;-5.20;99.90
2022;DHT22;1015;49.756;6.994;2022-12-13T04:03:00;-5.30;99.90
2022;DHT22;1015;49.756;6.994;2022-12-13T04:05:27;-5.30;99.90
2022;DHT22;1015;49.756;6.994;2022-12-13T04:07:55;-5.30;99.90
2022;DHT22;1015;49.756;6.994;2022-12-13T04:10:24;-5.30;99.90
2022;DHT22;1015;49.756;6.994;2022-12-13T04:12:51;-5.50;99.90
2022;DHT22;1015;49.756;6.994;2022-12-13T04:15:35;-5.50;99.90
2022;DHT22;1015;49.756;6.994;2022-12-13T04:18:02;-5.50;99.90
2022;DHT22;1015;49.756;6.994;2022-12-13T04:20:29;-5.60;99.90
2022;DHT22;1015;49.756;6.994;2022-12-13T04:22:56;-5.80;99.90
2022;DHT22;1015;49.756;6.994;2022-12-13T04:25:25;-5.90;99.90
2022;DHT22;1015;49.756;6.994;2022-12-13T04:27:52;-6.00;99.90
2022;DHT22;1015;49.756;6.994;2022-12-13T04:30:19;-6.00;99.90
2022;DHT22;1015;49.756;6.994;2022-12-13T04:32:46;-6.10;99.90
2022;DHT22;1015;49.756;6.994;2022-12-13T04:35:13;-6.20;99.90
2022;DHT22;1015;49.756;6.994;2022-12-13T04:37:40;-6.20;99.90
2022;DHT22;1015;49.756;6.994;2022-12-13T04:40:08;-6.20;99.90
2022;DHT22;1015;49.756;6.994;2022-12-13T04:42:37;-6.20;99.90
2022;DHT22;1015;49.756;6.994;2022-12-13T04:45:04;-6.30;99.90
2022;DHT22;1015;49.756;6.994;2022-12-13T04:47:32;-6.20;99.90
2022;DHT22;1015;49.756;6.994;2022-12-13T04:49:59;-6.20;99.90
2022;DHT22;1015;49.756;6.994;2022-12-13T04:52:26;-6.20;99.90
2022;DHT22;1015;49.756;6.994;2022-12-13T04:54:53;-6.10;99.90
2022;DHT22;1015;49.756;6.994;2022-12-13T04:57:20;-6.10;99.90
2022;DHT22;1015;49.756;6.994;2022-12-13T04:59:48;-6.10;99.90
2022;DHT22;1015;49.756;6.994;2022-12-13T05:02:15;-6.30;99.90
2022;DHT22;1015;49.756;6.994;2022-12-13T05:04:44;-6.20;99.90
2022;DHT22;1015;49.756;6.994;2022-12-13T05:07:11;-6.20;99.90
2022;DHT22;1015;49.756;6.994;2022-12-13T05:09:38;-6.10;99.90
2022;DHT22;1015;49.756;6.994;2022-12-13T05:12:05;-6.10;99.90
2022;DHT22;1015;49.756;6.994;2022-12-13T05:14:32;-6.00;99.90
2022;DHT22;1015;49.756;6.994;2022-12-13T05:17:01;-5.90;99.90
2022;DHT22;1015;49.756;6.994;2022-12-13T05:19:28;-6.00;99.90
2022;DHT22;1015;49.756;6.994;2022-12-13T05:21:55;-6.00;99.90
2022;DHT22;1015;49.756;6.994;2022-12-13T05:24:22;-6.00;99.90
2022;DHT22;1015;49.756;6.994;2022-12-13T05:26:49;-6.00;99.90
2022;DHT22;1015;49.756;6.994;2022-12-13T05:29:17;-6.10;99.90
2022;DHT22;1015;49.756;6.994;2022-12-13T05:34:13;-6.00;99.90
2022;DHT22;1015;49.756;6.994;2022-12-13T05:36:40;-6.10;99.90
2022;DHT22;1015;49.756;6.994;2022-12-13T05:39:07;-6.00;99.90
2022;DHT22;1015;49.756;6.994;2022-12-13T05:41:35;-5.80;99.90
2022;DHT22;1015;49.756;6.994;2022-12-13T05:44:02;-5.80;99.90
2022;DHT22;1015;49.756;6.994;2022-12-13T05:46:30;-5.70;99.90
2022;DHT22;1015;49.756;6.994;2022-12-13T05:48:57;-5.60;99.90
2022;DHT22;1015;49.756;6.994;2022-12-13T05:51:25;-5.60;99.90
2022;DHT22;1015;49.756;6.994;2022-12-13T05:53:52;-5.50;99.90
2022;DHT22;1015;49.756;6.994;2022-12-13T05:56:19;-5.50;99.90
2022;DHT22;1015;49.756;6.994;2022-12-13T05:58:46;-5.50;99.90
2022;DHT22;1015;49.756;6.994;2022-12-13T06:01:14;-5.80;99.90
2022;DHT22;1015;49.756;6.994;2022-12-13T06:03:42;-5.40;99.90
2022;DHT22;1015;49.756;6.994;2022-12-13T06:06:10;-5.40;99.90
2022;DHT22;1015;49.756;6.994;2022-12-13T06:08:39;-5.40;99.90
2022;DHT22;1015;49.756;6.994;2022-12-13T06:11:06;-5.40;99.90
2022;DHT22;1015;49.756;6.994;2022-12-13T06:13:33;-5.30;99.90
2022;DHT22;1015;49.756;6.994;2022-12-13T06:16:01;-5.30;99.90
2022;DHT22;1015;49.756;6.994;2022-12-13T06:20:59;-5.30;99.90
2022;DHT22;1015;49.756;6.994;2022-12-13T06:23:26;-5.40;99.90
2022;DHT22;1015;49.756;6.994;2022-12-13T06:25:54;-5.40;99.90
2022;DHT22;1015;49.756;6.994;2022-12-13T06:28:21;-5.50;99.90
2022;DHT22;1015;49.756;6.994;2022-12-13T06:30:49;-5.40;99.90
2022;DHT22;1015;49.756;6.994;2022-12-13T06:33:17;-5.40;99.90
2022;DHT22;1015;49.756;6.994;2022-12-13T06:35:44;-5.40;99.90
2022;DHT22;1015;49.756;6.994;2022-12-13T06:38:12;-5.50;99.90
2022;DHT22;1015;49.756;6.994;2022-12-13T06:43:08;-5.60;99.90
2022;DHT22;1015;49.756;6.994;2022-12-13T06:45:37;-5.50;99.90
2022;DHT22;1015;49.756;6.994;2022-12-13T06:48:05;-5.50;99.90
2022;DHT22;1015;49.756;6.994;2022-12-13T06:50:32;-5.50;99.90
2022;DHT22;1015;49.756;6.994;2022-12-13T06:52:59;-5.50;99.90
2022;DHT22;1015;49.756;6.994;2022-12-13T06:55:26;-5.50;99.90
2022;DHT22;1015;49.756;6.994;2022-12-13T06:57:53;-5.40;99.90
2022;DHT22;1015;49.756;6.994;2022-12-13T07:00:22;-5.60;99.90
2022;DHT22;1015;49.756;6.994;2022-12-13T07:02:52;-5.50;99.90
2022;DHT22;1015;49.756;6.994;2022-12-13T07:05:19;-5.50;99.90
2022;DHT22;1015;49.756;6.994;2022-12-13T07:07:46;-5.50;99.90
2022;DHT22;1015;49.756;6.994;2022-12-13T07:10:13;-5.50;99.90
2022;DHT22;1015;49.756;6.994;2022-12-13T07:12:40;-5.40;99.90
2022;DHT22;1015;49.756;6.994;2022-12-13T07:15:08;-5.50;99.90
2022;DHT22;1015;49.756;6.994;2022-12-13T07:17:36;-5.40;99.90
2022;DHT22;1015;49.756;6.994;2022-12-13T07:20:06;-5.40;99.90
2022;DHT22;1015;49.756;6.994;2022-12-13T07:22:34;-5.40;99.90
2022;DHT22;1015;49.756;6.994;2022-12-13T07:25:02;-5.40;99.90
2022;DHT22;1015;49.756;6.994;2022-12-13T07:27:29;-5.40;99.90
2022;DHT22;1015;49.756;6.994;2022-12-13T07:29:56;-5.40;99.90
2022;DHT22;1015;49.756;6.994;2022-12-13T07:32:23;-5.50;99.90
2022;DHT22;1015;49.756;6.994;2022-12-13T07:34:52;-5.40;99.90
2022;DHT22;1015;49.756;6.994;2022-12-13T07:37:19;-5.40;99.90
2022;DHT22;1015;49.756;6.994;2022-12-13T07:39:46;-5.40;99.90
2022;DHT22;1015;49.756;6.994;2022-12-13T07:44:40;-5.30;99.90
2022;DHT22;1015;49.756;6.994;2022-12-13T07:47:07;-5.30;99.90
2022;DHT22;1015;49.756;6.994;2022-12-13T07:49:34;-5.20;99.90
2022;DHT22;1015;49.756;6.994;2022-12-13T07:52:03;-5.40;99.90
2022;DHT22;1015;49.756;6.994;2022-12-13T07:54:30;-5.20;99.90
2022;DHT22;1015;49.756;6.994;2022-12-13T07:56:57;-5.10;99.90
2022;DHT22;1015;49.756;6.994;2022-12-13T07:59:24;-5.20;99.90
2022;DHT22;1015;49.756;6.994;2022-12-13T08:01:51;-5.60;99.90
2022;DHT22;1015;49.756;6.994;2022-12-13T08:04:18;-5.10;99.90
2022;DHT22;1015;49.756;6.994;2022-12-13T08:06:45;-5.10;99.90
2022;DHT22;1015;49.756;6.994;2022-12-13T08:09:13;-5.00;99.90
2022;DHT22;1015;49.756;6.994;2022-12-13T08:11:40;-5.10;99.90
2022;DHT22;1015;49.756;6.994;2022-12-13T08:14:07;-5.10;99.90
2022;DHT22;1015;49.756;6.994;2022-12-13T08:16:34;-5.10;99.90
2022;DHT22;1015;49.756;6.994;2022-12-13T08:19:01;-5.10;99.90
2022;DHT22;1015;49.756;6.994;2022-12-13T08:21:28;-5.10;99.90
2022;DHT22;1015;49.756;6.994;2022-12-13T08:23:58;-5.20;99.90
2022;DHT22;1015;49.756;6.994;2022-12-13T08:26:27;-5.20;99.90
2022;DHT22;1015;49.756;6.994;2022-12-13T08:28:54;-5.20;99.90
2022;DHT22;1015;49.756;6.994;2022-12-13T08:31:21;-5.20;99.90
2022;DHT22;1015;49.756;6.994;2022-12-13T08:33:48;-5.30;99.90
2022;DHT22;1015;49.756;6.994;2022-12-13T08:36:16;-5.30;99.90
2022;DHT22;1015;49.756;6.994;2022-12-13T08:38:43;-5.30;99.90
2022;DHT22;1015;49.756;6.994;2022-12-13T08:41:11;-5.20;99.90
2022;DHT22;1015;49.756;6.994;2022-12-13T08:43:39;-5.20;99.90
2022;DHT22;1015;49.756;6.994;2022-12-13T08:46:06;-5.10;99.90
2022;DHT22;1015;49.756;6.994;2022-12-13T08:48:33;-5.20;99.90
2022;DHT22;1015;49.756;6.994;2022-12-13T08:51:01;-5.10;99.90
2022;DHT22;1015;49.756;6.994;2022-12-13T08:53:28;-5.10;99.90
2022;DHT22;1015;49.756;6.994;2022-12-13T08:55:59;-5.10;99.90
2022;DHT22;1015;49.756;6.994;2022-12-13T08:58:27;-5.00;99.90
2022;DHT22;1015;49.756;6.994;2022-12-13T09:00:55;-5.00;99.90
2022;DHT22;1015;49.756;6.994;2022-12-13T09:03:23;-4.90;99.90
2022;DHT22;1015;49.756;6.994;2022-12-13T09:05:50;-4.90;99.90
2022;DHT22;1015;49.756;6.994;2022-12-13T09:08:17;-4.90;99.90
2022;DHT22;1015;49.756;6.994;2022-12-13T09:10:44;-4.90;99.90
2022;DHT22;1015;49.756;6.994;2022-12-13T09:13:11;-4.90;99.90
2022;DHT22;1015;49.756;6.994;2022-12-13T09:15:39;-4.90;99.90
2022;DHT22;1015;49.756;6.994;2022-12-13T09:18:07;-4.90;99.90
2022;DHT22;1015;49.756;6.994;2022-12-13T09:20:34;-4.80;99.90
2022;DHT22;1015;49.756;6.994;2022-12-13T09:47:45;-4.30;99.90
2022;DHT22;1015;49.756;6.994;2022-12-13T09:50:19;-4.30;99.90
2022;DHT22;1015;49.756;6.994;2022-12-13T09:52:49;-4.40;99.90
2022;DHT22;1015;49.756;6.994;2022-12-13T19:48:29;-4.10;99.90
2022;DHT22;1015;49.756;6.994;2022-12-13T19:50:59;-4.20;99.90
2022;DHT22;1015;49.756;6.994;2022-12-13T19:53:27;-4.20;99.90
2022;DHT22;1015;49.756;6.994;2022-12-13T19:55:54;-4.20;99.90
2022;DHT22;1015;49.756;6.994;2022-12-13T19:58:21;-4.30;99.90
2022;DHT22;1015;49.756;6.994;2022-12-13T20:00:49;-4.30;99.90
2022;DHT22;1015;49.756;6.994;2022-12-13T20:03:16;-4.40;99.90
2022;DHT22;1015;49.756;6.994;2022-12-13T20:05:43;-4.40;99.90
2022;DHT22;1015;49.756;6.994;2022-12-13T20:08:12;-4.30;99.90
2022;DHT22;1015;49.756;6.994;2022-12-13T20:10:39;-4.40;99.90
2022;DHT22;1015;49.756;6.994;2022-12-13T20:13:06;-4.40;99.90
2022;DHT22;1015;49.756;6.994;2022-12-13T20:15:34;-4.40;99.90
2022;DHT22;1015;49.756;6.994;2022-12-13T20:18:02;-4.40;99.90
2022;DHT22;1015;49.756;6.994;2022-12-13T20:20:28;-4.50;99.90
2022;DHT22;1015;49.756;6.994;2022-12-13T20:22:56;-4.50;99.90
2022;DHT22;1015;49.756;6.994;2022-12-13T20:25:24;-4.60;99.90
2022;DHT22;1015;49.756;6.994;2022-12-13T20:27:51;-4.50;99.90
2022;DHT22;1015;49.756;6.994;2022-12-13T20:30:18;-4.50;99.90
2022;DHT22;1015;49.756;6.994;2022-12-13T20:32:46;-4.40;99.90
2022;DHT22;1015;49.756;6.994;2022-12-13T20:35:13;-4.50;99.90
2022;DHT22;1015;49.756;6.994;2022-12-13T20:37:40;-4.50;99.90
2022;DHT22;1015;49.756;6.994;2022-12-13T20:40:08;-4.50;99.90
2022;DHT22;1015;49.756;6.994;2022-12-13T20:42:37;-4.50;99.90
2022;DHT22;1015;49.756;6.994;2022-12-13T20:45:05;-4.50;99.90
2022;DHT22;1015;49.756;6.994;2022-12-13T20:47:33;-4.50;99.90
2022;DHT22;1015;49.756;6.994;2022-12-13T20:50:00;-4.60;99.90
2022;DHT22;1015;49.756;6.994;2022-12-13T20:52:28;-4.50;99.90
2022;DHT22;1015;49.756;6.994;2022-12-13T20:54:55;-4.50;99.90
2022;DHT22;1015;49.756;6.994;2022-12-13T20:57:22;-4.50;99.90
2022;DHT22;1015;49.756;6.994;2022-12-13T20:59:51;-4.50;99.90
2022;DHT22;1015;49.756;6.994;2022-12-13T21:02:18;-4.50;99.90
2022;DHT22;1015;49.756;6.994;2022-12-13T21:04:45;-4.50;99.90
2022;DHT22;1015;49.756;6.994;2022-12-13T21:07:12;-4.50;99.90
2022;DHT22;1015;49.756;6.994;2022-12-13T21:09:59;-4.50;99.90
2022;DHT22;1015;49.756;6.994;2022-12-13T21:12:26;-4.50;99.90
2022;DHT22;1015;49.756;6.994;2022-12-13T21:14:54;-4.50;99.90
2022;DHT22;1015;49.756;6.994;2022-12-13T21:17:21;-4.50;99.90
2022;DHT22;1015;49.756;6.994;2022-12-13T21:19:48;-4.50;99.90
2022;DHT22;1015;49.756;6.994;2022-12-13T21:22:15;-4.40;99.90
2022;DHT22;1015;49.756;6.994;2022-12-13T21:24:43;-4.40;99.90
2022;DHT22;1015;49.756;6.994;2022-12-13T21:27:10;-4.40;99.90
2022;DHT22;1015;49.756;6.994;2022-12-13T21:29:37;-4.30;99.90
2022;DHT22;1015;49.756;6.994;2022-12-13T21:32:06;-4.30;99.90
2022;DHT22;1015;49.756;6.994;2022-12-13T21:34:33;-4.20;99.90
2022;DHT22;1015;49.756;6.994;2022-12-13T21:37:00;-4.20;99.90
2022;DHT22;1015;49.756;6.994;2022-12-13T21:39:27;-4.10;99.90
2022;DHT22;1015;49.756;6.994;2022-12-13T21:41:54;-4.10;99.90
2022;DHT22;1015;49.756;6.994;2022-12-13T21:44:22;-4.20;99.90
2022;DHT22;1015;49.756;6.994;2022-12-13T21:46:49;-4.10;99.90
2022;DHT22;1015;49.756;6.994;2022-12-13T21:49:17;-4.10;99.90
2022;DHT22;1015;49.756;6.994;2022-12-13T21:51:44;-4.10;99.90
2022;DHT22;1015;49.756;6.994;2022-12-13T21:56:38;-4.20;99.90
2022;DHT22;1015;49.756;6.994;2022-12-13T21:59:24;-4.20;99.90
2022;DHT22;1015;49.756;6.994;2022-12-13T22:01:55;-4.20;99.90
2022;DHT22;1015;49.756;6.994;2022-12-13T22:04:40;-4.10;99.90
2022;DHT22;1015;49.756;6.994;2022-12-13T22:07:09;-4.10;99.90
2022;DHT22;1015;49.756;6.994;2022-12-13T22:09:36;-4.10;99.90
2022;DHT22;1015;49.756;6.994;2022-12-13T22:12:06;-4.10;99.90
2022;DHT22;1015;49.756;6.994;2022-12-13T22:14:33;-4.10;99.90
2022;DHT22;1015;49.756;6.994;2022-12-13T22:17:00;-4.10;99.90
2022;DHT22;1015;49.756;6.994;2022-12-13T22:19:27;-4.00;99.90
2022;DHT22;1015;49.756;6.994;2022-12-13T22:21:56;-4.00;99.90
2022;DHT22;1015;49.756;6.994;2022-12-13T22:24:23;-4.10;99.90
2022;DHT22;1015;49.756;6.994;2022-12-13T22:26:50;-4.10;99.90
2022;DHT22;1015;49.756;6.994;2022-12-13T22:29:17;-4.10;99.90
2022;DHT22;1015;49.756;6.994;2022-12-13T22:31:44;-4.10;99.90
2022;DHT22;1015;49.756;6.994;2022-12-13T22:34:11;-4.10;99.90
2022;DHT22;1015;49.756;6.994;2022-12-13T22:36:38;-4.10;99.90
2022;DHT22;1015;49.756;6.994;2022-12-13T22:39:13;-4.10;99.90
2022;DHT22;1015;49.756;6.994;2022-12-13T22:41:41;-4.10;99.90
2022;DHT22;1015;49.756;6.994;2022-12-13T22:44:08;-4.00;99.90
2022;DHT22;1015;49.756;6.994;2022-12-13T22:46:36;-4.00;99.90
2022;DHT22;1015;49.756;6.994;2022-12-13T22:49:03;-4.10;99.90
2022;DHT22;1015;49.756;6.994;2022-12-13T22:51:30;-4.00;99.90
2022;DHT22;1015;49.756;6.994;2022-12-13T22:53:57;-4.10;99.90
2022;DHT22;1015;49.756;6.994;2022-12-13T22:56:26;-4.10;99.90
2022;DHT22;1015;49.756;6.994;2022-12-13T22:58:54;-4.10;99.90
2022;DHT22;1015;49.756;6.994;2022-12-13T23:01:23;-4.20;99.90
2022;DHT22;1015;49.756;6.994;2022-12-13T23:03:50;-4.20;99.90
2022;DHT22;1015;49.756;6.994;2022-12-13T23:06:19;-4.20;99.90
2022;DHT22;1015;49.756;6.994;2022-12-13T23:08:49;-4.20;99.90
2022;DHT22;1015;49.756;6.994;2022-12-13T23:11:17;-3.90;99.90
2022;DHT22;1015;49.756;6.994;2022-12-13T23:14:05;-4.30;99.90
2022;DHT22;1015;49.756;6.994;2022-12-13T23:16:33;-4.40;99.90
2022;DHT22;1015;49.756;6.994;2022-12-13T23:19:01;-4.30;99.90
2022;DHT22;1015;49.756;6.994;2022-12-13T23:21:28;-4.30;99.90
2022;DHT22;1015;49.756;6.994;2022-12-13T23:23:57;-4.40;99.90
2022;DHT22;1015;49.756;6.994;2022-12-13T23:26:26;-4.40;99.90
2022;DHT22;1015;49.756;6.994;2022-12-13T23:28:55;-4.40;99.90
2022;DHT22;1015;49.756;6.994;2022-12-13T23:31:25;-4.40;99.90
2022;DHT22;1015;49.756;6.994;2022-12-13T23:33:53;-4.40;99.90
2022;DHT22;1015;49.756;6.994;2022-12-13T23:36:22;-4.50;99.90
2022;DHT22;1015;49.756;6.994;2022-12-13T23:38:49;-4.50;99.90
2022;DHT22;1015;49.756;6.994;2022-12-13T23:41:18;-4.40;99.90
2022;DHT22;1015;49.756;6.994;2022-12-13T23:43:46;-4.30;99.90
2022;DHT22;1015;49.756;6.994;2022-12-13T23:46:16;-4.30;99.90
2022;DHT22;1015;49.756;6.994;2022-12-13T23:48:45;-4.20;99.90
2022;DHT22;1015;49.756;6.994;2022-12-13T23:51:14;-4.10;99.90
2022;DHT22;1015;49.756;6.994;2022-12-13T23:53:41;-3.70;99.90
2022;DHT22;1015;49.756;6.994;2022-12-13T23:56:10;-3.60;99.90
2022;DHT22;1015;49.756;6.994;2022-12-13T23:58:38;-4.10;99.90
